Time;durP1;ratioP1;P1;durP2;ratioP2;P2;SDS_P1;SDS_P2;PMS_P1;PMS_P2;Temp;Humidity;BMP_temperature;BMP_pressure;BME280_temperature;BME280_humidity;BME280_pressure;Samples;Min_cycle;Max_cycle;Signal;HPM_P1;HPM_P2
2022/05/07 00:00:41;;;;;;;;;10.25;10.25;;;26.46;98110.17;;;;117352;1190;26609;-63
2022/05/07 00:03:09;;;;;;;;;12.00;10.75;;;26.43;98104.45;;;;117403;1190;25403;-64
2022/05/07 00:05:38;;;;;;;;;11.50;10.75;;;26.40;98104.18;;;;117415;1189;25238;-68
2022/05/07 00:08:06;;;;;;;;;12.25;10.50;;;26.41;98105.08;;;;117431;1190;24757;-68
2022/05/07 00:10:34;;;;;;;;;11.67;11.00;;;26.41;98106.07;;;;117467;1190;24955;-66
2022/05/07 00:13:04;;;;;;;;;15.50;12.00;;;26.41;98109.46;;;;117397;1190;24738;-64
2022/05/07 00:15:32;;;;;;;;;7.75;7.75;;;26.40;98108.05;;;;117392;1190;25578;-66
2022/05/07 00:18:07;;;;;;;;;10.75;10.75;;;26.39;98107.39;;;;117381;1189;25078;-66
2022/05/07 00:20:35;;;;;;;;;14.00;12.50;;;26.36;98105.73;;;;117438;1189;25436;-66
2022/05/07 00:23:03;;;;;;;;;11.75;8.00;;;26.38;98105.10;;;;117400;1189;25122;-65
2022/05/07 00:25:32;;;;;;;;;10.50;8.00;;;26.37;98103.30;;;;117404;1190;25843;-65
2022/05/07 00:28:00;;;;;;;;;13.00;12.00;;;26.35;98105.26;;;;117351;1190;25646;-66
2022/05/07 00:30:27;;;;;;;;;12.33;11.00;;;26.34;98104.92;;;;117446;1189;25071;-62
2022/05/07 00:32:55;;;;;;;;;10.50;9.25;;;26.35;98105.42;;;;117411;1190;24942;-63
2022/05/07 00:35:23;;;;;;;;;12.00;11.00;;;26.35;98105.09;;;;117393;1188;26099;-63
2022/05/07 00:37:51;;;;;;;;;15.25;11.50;;;26.33;98099.34;;;;117373;1190;25719;-66
2022/05/07 00:40:19;;;;;;;;;12.00;12.00;;;26.31;98099.60;;;;117362;1190;25476;-61
2022/05/07 00:42:46;;;;;;;;;11.25;10.00;;;26.29;98095.65;;;;117477;1190;25076;-65
2022/05/07 00:45:14;;;;;;;;;16.00;12.00;;;26.31;98094.90;;;;117434;1190;25503;-62
2022/05/07 00:47:43;;;;;;;;;10.00;9.25;;;26.31;98093.42;;;;117404;1190;25264;-65
2022/05/07 00:52:58;;;;;;;;;14.67;13.00;;;26.30;98093.27;;;;117466;1190;25451;-66
2022/05/07 00:55:28;;;;;;;;;13.33;10.00;;;26.30;98092.53;;;;117452;1189;25670;-64
2022/05/07 00:57:55;;;;;;;;;13.50;13.00;;;26.32;98092.91;;;;117396;1189;25001;-67
2022/05/07 01:00:23;;;;;;;;;11.50;11.50;;;26.32;98097.45;;;;117405;1189;25202;-69
2022/05/07 01:02:51;;;;;;;;;15.33;12.00;;;26.32;98095.50;;;;117560;1190;25125;-68
2022/05/07 01:05:19;;;;;;;;;13.67;11.00;;;26.34;98095.23;;;;117575;1190;25448;-66
2022/05/07 01:07:47;;;;;;;;;11.00;10.33;;;26.34;98095.43;;;;117392;1190;25686;-65
2022/05/07 01:10:16;;;;;;;;;13.00;13.00;;;26.31;98096.96;;;;117352;1190;25233;-67
2022/05/07 01:12:44;;;;;;;;;11.75;11.25;;;26.28;98094.23;;;;117449;1190;25249;-66
2022/05/07 01:15:12;;;;;;;;;12.33;11.00;;;26.28;98092.20;;;;117466;1190;26009;-65
2022/05/07 01:17:40;;;;;;;;;12.25;9.50;;;26.30;98091.15;;;;117411;1189;25706;-66
2022/05/07 01:20:10;;;;;;;;;11.25;11.00;;;26.29;98089.80;;;;117388;1190;24987;-64
2022/05/07 01:22:38;;;;;;;;;10.25;10.00;;;26.27;98087.16;;;;117424;1188;25056;-63
2022/05/07 01:25:07;;;;;;;;;13.25;10.75;;;26.27;98087.45;;;;117468;1189;25660;-64
2022/05/07 01:27:35;;;;;;;;;13.50;12.00;;;26.29;98087.91;;;;117391;1189;25279;-62
2022/05/07 01:30:04;;;;;;;;;14.00;10.33;;;26.26;98084.39;;;;117358;1190;25865;-65
2022/05/07 01:32:31;;;;;;;;;10.50;10.00;;;26.25;98086.30;;;;117384;1190;25166;-65
2022/05/07 01:34:59;;;;;;;;;10.25;10.25;;;26.24;98084.73;;;;117413;1190;24807;-65
2022/05/07 01:37:28;;;;;;;;;7.25;7.25;;;26.24;98089.72;;;;117394;1191;25945;-66
2022/05/07 01:39:56;;;;;;;;;13.00;10.67;;;26.24;98088.98;;;;117426;1190;24761;-65
2022/05/07 01:42:24;;;;;;;;;14.00;12.00;;;26.25;98088.72;;;;117424;1190;25070;-65
2022/05/07 01:44:52;;;;;;;;;11.00;11.00;;;26.23;98091.86;;;;117437;1190;24957;-64
2022/05/07 01:50:07;;;;;;;;;12.25;9.75;;;26.24;98090.00;;;;117398;1189;25714;-68
2022/05/07 01:52:35;;;;;;;;;14.50;10.75;;;26.22;98085.21;;;;117434;1190;24750;-63
2022/05/07 01:55:04;;;;;;;;;13.33;11.33;;;26.23;98087.11;;;;117393;1190;25786;-68
2022/05/07 01:57:31;;;;;;;;;12.00;9.00;;;26.24;98083.90;;;;117408;1188;25074;-69
2022/05/07 01:59:59;;;;;;;;;14.75;11.25;;;26.22;98081.50;;;;117389;1189;25634;-62
2022/05/07 02:02:28;;;;;;;;;11.33;9.33;;;26.21;98077.63;;;;117476;1189;24955;-66
2022/05/07 02:04:57;;;;;;;;;9.00;7.00;;;26.22;98075.61;;;;117390;1190;25340;-65
2022/05/07 02:07:25;;;;;;;;;15.00;12.33;;;26.22;98076.67;;;;117401;1191;25480;-63
2022/05/07 02:09:52;;;;;;;;;14.25;9.75;;;26.21;98077.61;;;;117358;1189;25056;-65
2022/05/07 02:12:22;;;;;;;;;8.25;7.25;;;26.18;98075.36;;;;117421;1189;25333;-66
2022/05/07 02:14:50;;;;;;;;;12.00;11.33;;;26.18;98073.25;;;;117521;1190;24851;-65
2022/05/07 02:17:20;;;;;;;;;12.00;10.00;;;26.19;98070.39;;;;117494;1190;25322;-63
2022/05/07 02:19:49;;;;;;;;;12.00;10.00;;;26.21;98072.19;;;;117517;1188;25435;-63
2022/05/07 02:22:17;;;;;;;;;12.00;9.00;;;26.19;98073.08;;;;117523;1190;25121;-63
2022/05/07 02:24:46;;;;;;;;;12.00;11.00;;;26.18;98071.28;;;;117532;1190;24794;-62
2022/05/07 02:27:14;;;;;;;;;10.75;10.75;;;26.19;98071.84;;;;117416;1190;25605;-62
2022/05/07 02:29:42;;;;;;;;;10.00;8.50;;;26.16;98070.27;;;;117380;1190;25623;-65
2022/05/07 02:32:13;;;;;;;;;11.50;10.25;;;26.15;98067.58;;;;117402;1190;25431;-63
2022/05/07 02:34:42;;;;;;;;;11.33;8.33;;;26.17;98068.92;;;;117442;1190;25444;-66
2022/05/07 02:37:10;;;;;;;;;9.25;9.25;;;26.19;98066.08;;;;117505;1190;24933;-65
2022/05/07 02:39:38;;;;;;;;;8.00;7.50;;;26.21;98064.05;;;;117617;1190;25478;-65
2022/05/07 02:44:53;;;;;;;;;11.50;10.25;;;26.24;98068.95;;;;117356;1189;25029;-64
2022/05/07 02:47:20;;;;;;;;;14.00;10.67;;;26.19;98068.63;;;;117581;1190;24720;-64
2022/05/07 02:49:48;;;;;;;;;13.00;11.00;;;26.23;98071.48;;;;117443;1190;25648;-64
2022/05/07 02:52:16;;;;;;;;;13.75;10.50;;;26.21;98070.54;;;;117415;1190;25281;-62
2022/05/07 02:54:44;;;;;;;;;11.00;10.50;;;26.21;98071.81;;;;117471;1190;24855;-66
2022/05/07 02:57:12;;;;;;;;;9.75;8.75;;;26.20;98070.50;;;;117342;1190;25553;-64
2022/05/07 02:59:40;;;;;;;;;15.33;11.33;;;26.16;98069.94;;;;117392;1190;25355;-66
2022/05/07 03:02:07;;;;;;;;;10.00;10.00;;;26.15;98068.02;;;;117403;1190;25323;-62
2022/05/07 03:04:36;;;;;;;;;11.25;9.00;;;26.14;98067.73;;;;117370;1190;25151;-62
2022/05/07 03:07:03;;;;;;;;;11.00;10.00;;;26.12;98072.15;;;;117367;1190;25045;-64
2022/05/07 03:09:31;;;;;;;;;11.67;11.00;;;26.12;98073.05;;;;117400;1190;25584;-66
2022/05/07 03:11:59;;;;;;;;;11.50;10.50;;;26.09;98073.77;;;;117413;1190;25302;-67
2022/05/07 03:14:27;;;;;;;;;11.33;10.67;;;26.09;98077.23;;;;117385;1190;25241;-62
2022/05/07 03:16:55;;;;;;;;;9.75;9.75;;;26.08;98076.55;;;;117339;1190;25639;-65
2022/05/07 03:19:22;;;;;;;;;10.50;10.25;;;26.08;98078.64;;;;117355;1190;25204;-64
2022/05/07 03:21:50;;;;;;;;;12.00;10.50;;;26.06;98083.09;;;;117351;1190;25202;-68
2022/05/07 03:24:18;;;;;;;;;13.25;11.00;;;26.05;98083.27;;;;117366;1190;25165;-70
2022/05/07 03:26:46;;;;;;;;;9.50;8.00;;;26.07;98086.70;;;;117461;1190;25162;-64
2022/05/07 03:29:14;;;;;;;;;16.75;11.00;;;26.09;98090.33;;;;117396;1190;25615;-63
2022/05/07 03:31:42;;;;;;;;;11.00;10.00;;;26.08;98090.04;;;;117421;1189;25729;-66
2022/05/07 03:34:10;;;;;;;;;10.75;9.25;;;26.08;98092.39;;;;117505;1189;25054;-64
2022/05/07 03:36:39;;;;;;;;;9.00;9.00;;;26.12;98092.19;;;;117369;1189;25062;-67
2022/05/07 03:39:07;;;;;;;;;12.00;10.25;;;26.10;98093.75;;;;117409;1190;25033;-64
2022/05/07 03:41:35;;;;;;;;;11.75;9.00;;;26.10;98097.64;;;;117388;1189;25473;-68
2022/05/07 03:44:03;;;;;;;;;11.00;9.25;;;26.08;98102.86;;;;117454;1190;25482;-66
2022/05/07 03:46:31;;;;;;;;;11.50;10.25;;;26.09;98101.36;;;;117421;1190;25088;-67
2022/05/07 03:48:59;;;;;;;;;14.50;13.50;;;26.11;98100.31;;;;117357;1191;25524;-65
2022/05/07 03:51:27;;;;;;;;;7.00;4.00;;;26.09;98098.41;;;;117361;1190;25333;-66
2022/05/07 03:53:54;;;;;;;;;9.25;7.75;;;26.08;98097.95;;;;117397;1190;25535;-67
2022/05/07 03:56:22;;;;;;;;;11.25;10.25;;;26.08;98099.96;;;;117359;1190;25685;-66
2022/05/07 03:58:50;;;;;;;;;15.00;10.25;;;26.09;98103.94;;;;117386;1188;26367;-68
2022/05/07 04:01:19;;;;;;;;;10.00;9.50;;;26.09;98104.79;;;;117364;1190;25419;-67
2022/05/07 04:03:47;;;;;;;;;7.33;7.33;;;26.09;98106.27;;;;117468;1190;25528;-66
2022/05/07 04:06:14;;;;;;;;;12.75;10.50;;;26.14;98108.27;;;;117457;1190;25280;-64
2022/05/07 04:08:42;;;;;;;;;11.50;9.25;;;26.19;98108.93;;;;117468;1190;24878;-69
2022/05/07 04:11:10;;;;;;;;;12.67;10.67;;;26.23;98109.81;;;;117420;1190;25625;-66
2022/05/07 04:13:38;;;;;;;;;11.25;11.25;;;26.24;98111.91;;;;117453;1190;25049;-68
2022/05/07 04:16:06;;;;;;;;;11.25;11.00;;;26.24;98111.41;;;;117407;1190;24675;-67
2022/05/07 04:18:34;;;;;;;;;15.75;10.00;;;26.25;98109.15;;;;117380;1190;25454;-68
2022/05/07 04:21:05;;;;;;;;;12.75;10.50;;;26.24;98113.69;;;;117435;1188;25288;-61
2022/05/07 04:23:34;;;;;;;;;11.00;10.25;;;26.23;98116.67;;;;117409;1189;25068;-73
2022/05/07 04:26:05;;;;;;;;;10.25;10.25;;;26.25;98118.08;;;;117462;1190;25912;-68
2022/05/07 04:28:38;;;;;;;;;12.00;10.00;;;26.23;98118.33;;;;117389;1190;25565;-67
2022/05/07 04:31:07;;;;;;;;;10.00;9.25;;;26.24;98119.38;;;;117399;1190;24784;-62
2022/05/07 04:33:37;;;;;;;;;16.25;13.25;;;26.24;98121.32;;;;117490;1190;24742;-67
2022/05/07 04:36:06;;;;;;;;;15.00;12.75;;;26.24;98119.17;;;;117402;1190;25673;-66
2022/05/07 04:38:35;;;;;;;;;14.75;11.50;;;26.20;98121.81;;;;117511;1190;25032;-63
2022/05/07 04:41:08;;;;;;;;;15.33;11.67;;;26.22;98120.20;;;;117428;1190;25303;-64
2022/05/07 04:43:36;;;;;;;;;15.00;14.00;;;26.25;98122.74;;;;117515;1190;25160;-63
2022/05/07 04:46:03;;;;;;;;;16.00;13.50;;;26.27;98127.29;;;;117396;1190;25186;-67
2022/05/07 04:48:34;;;;;;;;;15.50;14.25;;;26.26;98127.36;;;;117387;1190;24820;-62
2022/05/07 04:51:03;;;;;;;;;12.67;11.00;;;26.26;98126.60;;;;117356;1189;24976;-69
2022/05/07 04:53:51;;;;;;;;;9.25;9.25;;;26.30;98127.31;;;;117371;1190;25615;-68
2022/05/07 04:56:23;;;;;;;;;18.00;16.75;;;26.33;98129.29;;;;117439;1190;25526;-65
2022/05/07 04:58:51;;;;;;;;;16.25;15.25;;;26.29;98132.66;;;;117404;1190;25256;-62
2022/05/07 05:01:19;;;;;;;;;15.50;14.50;;;26.29;98135.98;;;;117483;1190;24707;-64
2022/05/07 05:03:49;;;;;;;;;16.25;14.50;;;26.33;98135.87;;;;117498;1190;24770;-69
2022/05/07 05:06:18;;;;;;;;;17.75;14.50;;;26.36;98138.48;;;;117423;1190;24698;-67
2022/05/07 05:08:46;;;;;;;;;15.75;14.75;;;26.38;98139.89;;;;117392;1190;25331;-65
2022/05/07 05:11:15;;;;;;;;;19.00;14.25;;;26.33;98143.21;;;;117505;1190;25249;-64
2022/05/07 05:13:43;;;;;;;;;13.75;13.25;;;26.38;98144.88;;;;117409;1189;25923;-65
2022/05/07 05:16:11;;;;;;;;;14.00;11.50;;;26.36;98146.73;;;;117453;1189;26055;-71
2022/05/07 05:18:39;;;;;;;;;19.50;14.00;;;26.33;98146.77;;;;117435;1187;25177;-67
2022/05/07 05:21:07;;;;;;;;;17.25;15.75;;;26.32;98146.27;;;;117401;1190;25636;-67
2022/05/07 05:23:36;;;;;;;;;13.75;12.00;;;26.29;98147.73;;;;117540;1190;25051;-66
2022/05/07 05:26:03;;;;;;;;;16.33;15.00;;;26.34;98148.28;;;;117569;1190;25449;-70
2022/05/07 05:28:37;;;;;;;;;15.00;14.67;;;26.35;98148.31;;;;117442;1189;24897;-71
2022/05/07 05:31:09;;;;;;;;;15.00;14.50;;;26.36;98148.42;;;;117522;1190;25433;-69
2022/05/07 05:33:36;;;;;;;;;16.25;14.25;;;26.35;98150.37;;;;117523;1191;25500;-73
2022/05/07 05:36:04;;;;;;;;;16.00;13.75;;;26.33;98150.62;;;;117452;1190;25520;-68
2022/05/07 05:38:34;;;;;;;;;16.00;14.75;;;26.31;98154.34;;;;117365;1189;25425;-68
2022/05/07 05:41:02;;;;;;;;;17.33;15.33;;;26.20;98154.11;;;;117325;1190;25403;-63
2022/05/07 05:43:32;;;;;;;;;11.33;8.00;;;26.23;98152.73;;;;117357;1190;24821;-71
2022/05/07 05:46:00;;;;;;;;;13.75;13.25;;;26.24;98152.07;;;;117436;1190;25358;-62
2022/05/07 05:48:30;;;;;;;;;18.00;15.33;;;26.33;98148.38;;;;117429;1190;25975;-61
2022/05/07 05:50:59;;;;;;;;;24.00;16.50;;;26.25;98149.06;;;;117384;1190;25107;-70
2022/05/07 05:53:27;;;;;;;;;29.33;25.67;;;26.31;98151.33;;;;117455;1189;25708;-67
2022/05/07 05:55:59;;;;;;;;;23.50;21.50;;;26.32;98154.98;;;;117384;1190;25443;-67
2022/05/07 05:58:33;;;;;;;;;26.50;22.50;;;26.31;98158.20;;;;117432;1189;25675;-66
2022/05/07 06:01:06;;;;;;;;;28.67;21.33;;;26.34;98159.82;;;;117424;1190;25625;-60
2022/05/07 06:03:34;;;;;;;;;29.67;24.00;;;26.36;98160.23;;;;117401;1190;26894;-66
2022/05/07 06:06:02;;;;;;;;;25.33;24.33;;;26.32;98162.14;;;;117476;1190;25132;-58
2022/05/07 06:08:33;;;;;;;;;30.00;25.25;;;26.43;98160.34;;;;117629;1190;25069;-60
2022/05/07 06:11:02;;;;;;;;;24.67;22.67;;;26.56;98163.55;;;;117542;1190;24877;-56
2022/05/07 06:13:31;;;;;;;;;24.50;21.00;;;26.66;98162.44;;;;117585;1189;25095;-60
2022/05/07 06:15:59;;;;;;;;;32.50;25.00;;;26.72;98163.93;;;;117485;1190;25771;-61
2022/05/07 06:18:29;;;;;;;;;31.67;28.33;;;26.73;98166.06;;;;117448;1190;24929;-58
2022/05/07 06:20:56;;;;;;;;;31.75;25.25;;;26.72;98165.77;;;;117453;1189;25105;-62
2022/05/07 06:23:24;;;;;;;;;28.67;25.00;;;26.73;98162.70;;;;117505;1189;25441;-58
2022/05/07 06:28:38;;;;;;;;;34.75;27.00;;;26.79;98165.38;;;;117625;1189;25492;-60
2022/05/07 06:31:08;;;;;;;;;35.25;25.00;;;26.83;98166.45;;;;117492;1190;24698;-64
2022/05/07 06:33:40;;;;;;;;;28.67;24.00;;;26.85;98165.48;;;;117602;1190;25414;-63
2022/05/07 06:36:11;;;;;;;;;42.00;34.00;;;26.90;98171.30;;;;117509;1189;25632;-58
2022/05/07 06:38:41;;;;;;;;;37.00;33.50;;;26.87;98166.80;;;;117646;1190;25611;-56
2022/05/07 06:41:13;;;;;;;;;40.67;33.00;;;26.85;98168.33;;;;117463;1190;25512;-55
2022/05/07 06:43:42;;;;;;;;;35.00;33.00;;;26.80;98168.25;;;;117442;1190;25017;-55
2022/05/07 06:46:12;;;;;;;;;41.33;33.33;;;26.74;98170.92;;;;117594;1190;25477;-59
2022/05/07 06:48:41;;;;;;;;;43.67;34.00;;;26.74;98172.63;;;;117494;1190;24869;-59
2022/05/07 06:51:12;;;;;;;;;32.00;29.67;;;26.71;98173.09;;;;117590;1189;25221;-55
2022/05/07 06:53:39;;;;;;;;;38.00;33.33;;;26.79;98169.09;;;;117671;1189;25287;-55
2022/05/07 06:56:07;;;;;;;;;37.50;30.00;;;26.79;98170.46;;;;117626;1190;25531;-55
2022/05/07 06:58:35;;;;;;;;;38.67;28.67;;;26.76;98172.59;;;;117564;1189;24672;-58
2022/05/07 07:01:03;;;;;;;;;34.33;30.67;;;26.71;98170.19;;;;117505;1189;24947;-56
2022/05/07 07:03:31;;;;;;;;;32.00;28.00;;;26.65;98169.54;;;;117620;1189;24895;-56
2022/05/07 07:06:00;;;;;;;;;34.67;31.33;;;26.69;98166.64;;;;117729;1189;26590;-56
2022/05/07 07:08:30;;;;;;;;;33.00;30.50;;;26.72;98165.30;;;;117674;1189;26290;-54
2022/05/07 07:10:59;;;;;;;;;34.67;29.67;;;26.75;98166.01;;;;117666;1190;25358;-56
2022/05/07 07:13:26;;;;;;;;;37.00;32.00;;;26.72;98165.86;;;;117600;1188;26782;-56
2022/05/07 07:15:54;;;;;;;;;32.50;28.00;;;26.68;98168.27;;;;117540;1189;25641;-57
2022/05/07 07:18:23;;;;;;;;;36.67;28.67;;;26.64;98171.31;;;;117630;1190;25302;-57
2022/05/07 07:20:54;;;;;;;;;36.67;27.00;;;26.65;98168.73;;;;117474;1189;25536;-56
2022/05/07 07:23:21;;;;;;;;;30.67;29.33;;;26.65;98168.54;;;;117556;1189;25316;-55
2022/05/07 07:25:50;;;;;;;;;37.00;33.00;;;26.62;98166.43;;;;117519;1190;25226;-57
2022/05/07 07:28:18;;;;;;;;;34.33;30.00;;;26.59;98166.45;;;;117519;1190;25778;-57
2022/05/07 07:30:46;;;;;;;;;34.33;29.67;;;26.54;98167.82;;;;117455;1190;26301;-56
2022/05/07 07:33:15;;;;;;;;;39.33;33.33;;;26.48;98166.48;;;;117547;1190;25532;-56
2022/05/07 07:35:43;;;;;;;;;34.33;28.67;;;26.47;98168.02;;;;117556;1190;25586;-55
2022/05/07 07:38:13;;;;;;;;;37.50;28.50;;;26.48;98169.50;;;;117599;1190;25558;-55
2022/05/07 07:40:43;;;;;;;;;38.00;29.67;;;26.41;98173.02;;;;117568;1191;24908;-55
2022/05/07 07:43:11;;;;;;;;;35.33;29.33;;;26.33;98176.02;;;;117483;1191;25112;-56
2022/05/07 07:48:25;;;;;;;;;42.67;30.67;;;26.22;98170.39;;;;117399;1191;25502;-56
2022/05/07 07:50:53;;;;;;;;;44.67;33.67;;;26.14;98167.22;;;;117357;1190;26352;-55
2022/05/07 07:53:24;;;;;;;;;44.33;32.33;;;26.12;98167.32;;;;117416;1189;25556;-56
2022/05/07 07:55:52;;;;;;;;;46.50;36.50;;;26.11;98168.03;;;;117455;1190;25476;-56
2022/05/07 07:58:20;;;;;;;;;43.00;32.50;;;26.06;98168.86;;;;117370;1190;26457;-55
2022/05/07 08:00:48;;;;;;;;;44.00;36.33;;;26.05;98168.95;;;;117452;1189;25513;-55
2022/05/07 08:03:20;;;;;;;;;39.00;32.67;;;26.03;98167.14;;;;117373;1190;24807;-56
2022/05/07 08:05:51;;;;;;;;;36.33;30.67;;;26.03;98167.80;;;;117422;1190;25129;-57
2022/05/07 08:14:01;;;;;;;;;38.00;30.67;;;25.94;98171.64;;;;117392;1190;24922;-55
2022/05/07 08:16:33;;;;;;;;;36.00;26.33;;;25.92;98167.48;;;;117428;1189;25818;-58
2022/05/07 08:19:06;;;;;;;;;32.00;28.00;;;25.90;98168.62;;;;117419;1188;25226;-55
2022/05/07 08:21:36;;;;;;;;;31.50;23.50;;;25.91;98170.73;;;;117408;1190;25510;-57
2022/05/07 08:24:06;;;;;;;;;42.00;32.67;;;25.90;98169.59;;;;117364;1190;24884;-58
2022/05/07 08:26:33;;;;;;;;;35.00;30.00;;;25.87;98170.66;;;;117412;1190;26058;-57
2022/05/07 08:29:02;;;;;;;;;37.00;28.33;;;25.84;98170.50;;;;117436;1190;25284;-55
2022/05/07 08:31:29;;;;;;;;;35.33;30.67;;;25.82;98173.27;;;;117363;1190;24801;-55
2022/05/07 08:33:59;;;;;;;;;33.33;29.67;;;25.79;98170.79;;;;117351;1190;25262;-58
2022/05/07 08:36:26;;;;;;;;;37.33;35.00;;;25.79;98173.54;;;;117417;1189;25599;-56
2022/05/07 08:38:54;;;;;;;;;38.00;35.00;;;25.80;98172.52;;;;117365;1190;25684;-56
2022/05/07 08:41:23;;;;;;;;;40.67;33.33;;;25.77;98170.96;;;;117421;1188;24840;-58
2022/05/07 08:43:51;;;;;;;;;25.50;24.50;;;25.77;98172.04;;;;117369;1190;25049;-56
2022/05/07 08:46:19;;;;;;;;;33.67;29.33;;;25.74;98173.52;;;;117363;1189;25315;-56
2022/05/07 08:48:50;;;;;;;;;40.33;32.67;;;25.73;98170.35;;;;117392;1190;25564;-54
2022/05/07 08:51:21;;;;;;;;;26.00;26.00;;;25.74;98169.33;;;;117344;1190;26427;-57
2022/05/07 08:53:53;;;;;;;;;31.50;23.50;;;25.73;98170.91;;;;117421;1190;24789;-58
2022/05/07 08:56:24;;;;;;;;;30.33;28.00;;;25.76;98170.07;;;;117415;1190;25323;-57
2022/05/07 08:58:54;;;;;;;;;35.67;31.33;;;25.76;98173.38;;;;117408;1189;24900;-56
2022/05/07 09:01:25;;;;;;;;;34.50;28.00;;;25.75;98172.57;;;;117427;1189;25476;-55
2022/05/07 09:03:58;;;;;;;;;29.67;26.67;;;25.74;98172.88;;;;117389;1189;25499;-54
2022/05/07 09:06:30;;;;;;;;;28.00;26.33;;;25.74;98170.89;;;;117419;1190;25715;-55
2022/05/07 09:08:58;;;;;;;;;30.00;27.00;;;25.77;98167.17;;;;117382;1188;25149;-56
2022/05/07 09:11:39;;;;;;;;;33.67;30.67;;;25.75;98162.42;;;;117386;1189;24858;-56
2022/05/07 09:14:12;;;;;;;;;33.33;29.00;;;25.75;98158.85;;;;117438;1189;25317;-57
2022/05/07 09:16:50;;;;;;;;;26.67;22.67;;;25.79;98155.94;;;;117420;1190;25508;-55
2022/05/07 09:19:28;;;;;;;;;25.67;21.67;;;25.78;98154.29;;;;117363;1190;24971;-55
2022/05/07 09:22:11;;;;;;;;;30.00;23.67;;;25.78;98153.50;;;;117452;1190;25584;-56
2022/05/07 09:24:39;;;;;;;;;28.00;24.67;;;25.79;98152.33;;;;117412;1190;25651;-56
2022/05/07 09:27:18;;;;;;;;;27.50;25.00;;;25.76;98151.00;;;;117398;1190;24897;-57
2022/05/07 09:30:02;;;;;;;;;30.00;26.00;;;25.74;98151.17;;;;117420;1190;25448;-56
2022/05/07 09:32:40;;;;;;;;;25.67;24.00;;;25.80;98148.52;;;;117456;1189;25442;-56
2022/05/07 09:38:05;;;;;;;;;26.50;23.00;;;25.86;98146.73;;;;117450;1188;25066;-55
2022/05/07 09:40:43;;;;;;;;;34.67;27.33;;;25.84;98141.23;;;;117453;1190;25615;-56
2022/05/07 09:43:14;;;;;;;;;26.00;23.33;;;25.84;98141.90;;;;117361;1190;24710;-56
2022/05/07 09:45:44;;;;;;;;;28.67;25.00;;;25.82;98134.98;;;;117413;1189;25660;-56
2022/05/07 09:48:17;;;;;;;;;21.75;21.75;;;25.81;98131.64;;;;117438;1190;25592;-55
2022/05/07 09:51:03;;;;;;;;;28.67;25.00;;;25.83;98129.62;;;;117527;1190;24889;-56
2022/05/07 09:59:51;;;;;;;;;26.33;25.00;;;26.12;98114.70;;;;117033;1191;26453;-54
2022/05/07 10:02:33;;;;;;;;;28.33;22.00;;;26.06;98109.42;;;;117134;1191;24854;-55
2022/05/07 10:05:29;;;;;;;;;28.67;26.33;;;26.07;98110.16;;;;117076;1192;26374;-53
2022/05/07 10:08:41;;;;;;;;;23.00;20.33;;;26.06;98109.05;;;;116943;1193;25724;-57
2022/05/07 10:11:15;;;;;;;;;25.00;23.00;;;26.08;98107.42;;;;116991;1193;24956;-56
2022/05/07 10:13:58;;;;;;;;;17.00;17.00;;;26.13;98109.56;;;;117074;1192;25599;-54
2022/05/07 10:16:30;;;;;;;;;24.00;22.00;;;26.19;98111.54;;;;116954;1194;25867;-59
2022/05/07 10:19:14;;;;;;;;;30.67;21.33;;;26.19;98107.30;;;;117022;1194;25255;-52
2022/05/07 10:21:56;;;;;;;;;25.50;24.00;;;26.16;98105.88;;;;117160;1192;24960;-53
2022/05/07 10:24:28;;;;;;;;;23.00;20.00;;;26.25;98106.88;;;;117047;1193;26878;-55
2022/05/07 10:27:01;;;;;;;;;22.75;21.50;;;26.26;98104.86;;;;117092;1193;25490;-52
2022/05/07 10:29:30;;;;;;;;;26.25;23.50;;;26.26;98102.96;;;;117092;1191;25679;-56
2022/05/07 10:32:04;;;;;;;;;26.00;21.75;;;26.29;98094.91;;;;117114;1193;25512;-55
2022/05/07 10:34:32;;;;;;;;;20.75;16.75;;;26.32;98088.90;;;;117145;1193;25522;-54
2022/05/07 10:37:08;;;;;;;;;23.33;20.67;;;26.32;98085.89;;;;117158;1192;25740;-52
2022/05/07 10:39:52;;;;;;;;;20.75;15.75;;;26.34;98085.81;;;;117091;1194;25092;-53
2022/05/07 10:42:27;;;;;;;;;21.00;17.25;;;26.40;98081.00;;;;117079;1193;25710;-51
2022/05/07 10:44:58;;;;;;;;;22.50;20.75;;;26.48;98078.36;;;;117041;1192;25076;-54
2022/05/07 10:47:33;;;;;;;;;20.00;18.00;;;26.47;98074.30;;;;117022;1194;25354;-55
2022/05/07 10:50:08;;;;;;;;;18.00;15.50;;;26.43;98070.98;;;;117054;1192;24945;-55
2022/05/07 10:52:36;;;;;;;;;17.33;16.67;;;26.42;98074.95;;;;117015;1193;25300;-53
2022/05/07 10:55:16;;;;;;;;;18.00;17.25;;;26.42;98071.86;;;;117150;1193;26097;-54
2022/05/07 10:57:51;;;;;;;;;21.00;19.00;;;26.45;98074.27;;;;117037;1192;25011;-54
2022/05/07 11:00:21;;;;;;;;;22.50;19.25;;;26.47;98073.85;;;;117080;1193;25274;-55
2022/05/07 11:02:56;;;;;;;;;21.00;18.50;;;26.47;98073.17;;;;117145;1193;25633;-54
2022/05/07 11:05:33;;;;;;;;;21.00;18.50;;;26.46;98069.48;;;;117118;1193;24833;-53
2022/05/07 11:08:04;;;;;;;;;20.25;18.00;;;26.48;98071.12;;;;117130;1192;25236;-52
2022/05/07 11:10:37;;;;;;;;;19.00;17.00;;;26.48;98071.79;;;;117078;1193;25655;-54
2022/05/07 11:13:09;;;;;;;;;20.00;16.33;;;26.50;98068.75;;;;117017;1194;25459;-54
2022/05/07 11:15:41;;;;;;;;;20.75;20.75;;;26.48;98068.66;;;;117120;1193;25670;-53
2022/05/07 11:18:14;;;;;;;;;19.00;17.50;;;26.49;98063.25;;;;117091;1193;25106;-54
2022/05/07 11:20:44;;;;;;;;;22.67;17.67;;;26.50;98057.75;;;;117153;1191;25565;-55
2022/05/07 11:23:15;;;;;;;;;20.00;18.75;;;26.51;98053.39;;;;117137;1193;24800;-54
2022/05/07 11:25:53;;;;;;;;;17.00;17.00;;;26.51;98049.26;;;;117099;1192;24831;-53
2022/05/07 11:28:24;;;;;;;;;21.75;17.75;;;26.54;98045.63;;;;117012;1193;25477;-50
2022/05/07 11:30:57;;;;;;;;;16.75;15.25;;;26.50;98041.15;;;;117120;1193;25390;-54
2022/05/07 11:33:29;;;;;;;;;19.67;16.67;;;26.51;98038.60;;;;117152;1192;25430;-56
2022/05/07 11:36:10;;;;;;;;;23.75;17.50;;;26.50;98036.69;;;;117050;1192;25726;-52
2022/05/07 11:38:39;;;;;;;;;20.67;16.67;;;26.51;98030.06;;;;117052;1192;24958;-52
2022/05/07 11:41:15;;;;;;;;;19.50;16.25;;;26.50;98026.08;;;;117051;1193;25152;-53
2022/05/07 11:46:55;;;;;;;;;21.33;16.67;;;26.68;98023.31;;;;117073;1193;26661;-53
2022/05/07 11:49:36;;;;;;;;;23.00;21.67;;;26.59;98018.07;;;;116971;1194;25186;-54
2022/05/07 11:52:11;;;;;;;;;14.00;13.25;;;26.52;98022.10;;;;117123;1193;26303;-54
2022/05/07 11:54:49;;;;;;;;;18.67;16.33;;;26.51;98020.13;;;;117069;1193;25520;-54
2022/05/07 11:57:30;;;;;;;;;16.67;16.00;;;26.51;98016.65;;;;117044;1193;25352;-53
2022/05/07 12:00:31;;;;;;;;;15.00;14.33;;;26.53;98013.06;;;;117174;1191;24844;-53
2022/05/07 12:03:05;;;;;;;;;21.33;16.67;;;26.62;98007.02;;;;116812;1196;25623;-53
2022/05/07 12:05:45;;;;;;;;;14.50;14.50;;;26.63;98002.50;;;;116879;1193;25156;-55
2022/05/07 12:08:20;;;;;;;;;18.00;16.25;;;26.60;97996.97;;;;117093;1192;25259;-54
2022/05/07 12:10:50;;;;;;;;;20.33;20.33;;;26.59;97996.33;;;;117099;1192;25682;-55
2022/05/07 12:13:21;;;;;;;;;14.75;14.50;;;26.58;97996.48;;;;117041;1192;25204;-55
2022/05/07 12:18:53;;;;;;;;;15.00;13.00;;;26.64;97990.77;;;;117002;1194;27044;-54
2022/05/07 12:29:48;;;;;;;;;18.00;17.00;;;26.62;97987.05;;;;117142;1193;26359;-56
2022/05/07 12:29:53;;;;;;;;;14.33;13.00;;;26.65;97972.85;;;;117059;1193;24868;-54
2022/05/07 12:32:26;;;;;;;;;16.50;13.50;;;26.61;97968.05;;;;117012;1193;24843;-52
2022/05/07 12:34:54;;;;;;;;;21.00;18.67;;;26.63;97963.80;;;;117077;1193;26098;-54
2022/05/07 12:37:22;;;;;;;;;16.00;16.00;;;26.65;97961.54;;;;117062;1194;25308;-53
2022/05/07 12:39:50;;;;;;;;;17.00;17.00;;;26.64;97959.73;;;;116997;1193;25328;-51
2022/05/07 12:42:18;;;;;;;;;18.33;16.67;;;26.62;97961.69;;;;117009;1192;25771;-56
2022/05/07 12:44:45;;;;;;;;;9.67;8.00;;;26.61;97958.12;;;;117127;1192;24950;-52
2022/05/07 12:47:19;;;;;;;;;15.00;13.75;;;26.64;97954.98;;;;117167;1193;25620;-55